sensor_id;sensor_type;location;lat;lon;timestamp;P1;durP1;ratioP1;P2;durP2;ratioP2
40116;SDS011;25829;50.228;18.936;2023-06-24T00:00:34;2.20;;;2.00;;
40116;SDS011;25829;50.228;18.936;2023-06-24T00:03:37;1.70;;;1.60;;
40116;SDS011;25829;50.228;18.936;2023-06-24T00:06:38;3.55;;;1.98;;
40116;SDS011;25829;50.228;18.936;2023-06-24T00:09:40;2.13;;;1.77;;
40116;SDS011;25829;50.228;18.936;2023-06-24T00:12:40;2.10;;;1.77;;
40116;SDS011;25829;50.228;18.936;2023-06-24T00:15:43;2.08;;;1.88;;
40116;SDS011;25829;50.228;18.936;2023-06-24T00:18:44;2.45;;;2.00;;
40116;SDS011;25829;50.228;18.936;2023-06-24T00:21:51;2.25;;;2.05;;
40116;SDS011;25829;50.228;18.936;2023-06-24T00:24:53;3.78;;;2.00;;
40116;SDS011;25829;50.228;18.936;2023-06-24T00:27:54;2.55;;;2.10;;
40116;SDS011;25829;50.228;18.936;2023-06-24T00:30:55;2.35;;;1.75;;
40116;SDS011;25829;50.228;18.936;2023-06-24T00:33:55;2.22;;;2.00;;
40116;SDS011;25829;50.228;18.936;2023-06-24T00:36:57;2.00;;;1.77;;
40116;SDS011;25829;50.228;18.936;2023-06-24T00:53:29;2.08;;;1.88;;
40116;SDS011;25829;50.228;18.936;2023-06-24T00:56:42;2.25;;;2.08;;
40116;SDS011;25829;50.228;18.936;2023-06-24T00:59:43;2.28;;;2.08;;
40116;SDS011;25829;50.228;18.936;2023-06-24T01:02:58;2.10;;;1.90;;
40116;SDS011;25829;50.228;18.936;2023-06-24T01:06:02;2.65;;;2.17;;
40116;SDS011;25829;50.228;18.936;2023-06-24T01:09:03;2.30;;;2.10;;
40116;SDS011;25829;50.228;18.936;2023-06-24T01:12:10;4.05;;;2.28;;
40116;SDS011;25829;50.228;18.936;2023-06-24T01:15:11;2.85;;;2.20;;
40116;SDS011;25829;50.228;18.936;2023-06-24T01:18:24;1.92;;;1.83;;
40116;SDS011;25829;50.228;18.936;2023-06-24T01:21:48;2.30;;;2.10;;
40116;SDS011;25829;50.228;18.936;2023-06-24T01:32:37;2.65;;;2.17;;
40116;SDS011;25829;50.228;18.936;2023-06-24T01:35:42;3.30;;;2.05;;
40116;SDS011;25829;50.228;18.936;2023-06-24T01:38:48;2.60;;;2.40;;
40116;SDS011;25829;50.228;18.936;2023-06-24T01:42:10;2.13;;;1.85;;
40116;SDS011;25829;50.228;18.936;2023-06-24T01:45:14;2.42;;;2.22;;
40116;SDS011;25829;50.228;18.936;2023-06-24T01:48:28;3.42;;;2.20;;
40116;SDS011;25829;50.228;18.936;2023-06-24T01:51:35;2.80;;;2.60;;
40116;SDS011;25829;50.228;18.936;2023-06-24T01:54:38;2.85;;;2.28;;
40116;SDS011;25829;50.228;18.936;2023-06-24T01:57:40;2.90;;;2.55;;
40116;SDS011;25829;50.228;18.936;2023-06-24T02:00:50;2.40;;;2.10;;
40116;SDS011;25829;50.228;18.936;2023-06-24T02:03:55;2.70;;;2.13;;
40116;SDS011;25829;50.228;18.936;2023-06-24T02:07:01;5.65;;;2.40;;
40116;SDS011;25829;50.228;18.936;2023-06-24T02:10:22;4.45;;;2.50;;
40116;SDS011;25829;50.228;18.936;2023-06-24T02:13:24;3.97;;;2.45;;
40116;SDS011;25829;50.228;18.936;2023-06-24T02:16:32;2.40;;;1.90;;
40116;SDS011;25829;50.228;18.936;2023-06-24T02:19:37;4.07;;;2.50;;
40116;SDS011;25829;50.228;18.936;2023-06-24T02:22:44;3.80;;;2.17;;
40116;SDS011;25829;50.228;18.936;2023-06-24T02:26:00;4.32;;;2.50;;
40116;SDS011;25829;50.228;18.936;2023-06-24T02:29:08;2.40;;;2.20;;
40116;SDS011;25829;50.228;18.936;2023-06-24T02:32:21;6.85;;;2.28;;
40116;SDS011;25829;50.228;18.936;2023-06-24T02:35:38;2.50;;;2.30;;
40116;SDS011;25829;50.228;18.936;2023-06-24T02:38:41;2.78;;;2.25;;
40116;SDS011;25829;50.228;18.936;2023-06-24T02:41:42;5.50;;;3.28;;
40116;SDS011;25829;50.228;18.936;2023-06-24T02:44:44;5.22;;;2.40;;
40116;SDS011;25829;50.228;18.936;2023-06-24T02:47:45;2.58;;;2.30;;
40116;SDS011;25829;50.228;18.936;2023-06-24T02:50:59;3.47;;;2.58;;
40116;SDS011;25829;50.228;18.936;2023-06-24T02:54:10;2.95;;;2.65;;
40116;SDS011;25829;50.228;18.936;2023-06-24T02:57:33;2.63;;;2.40;;
40116;SDS011;25829;50.228;18.936;2023-06-24T03:00:54;3.75;;;2.70;;
40116;SDS011;25829;50.228;18.936;2023-06-24T03:04:22;3.08;;;2.63;;
40116;SDS011;25829;50.228;18.936;2023-06-24T03:07:22;2.72;;;2.50;;
40116;SDS011;25829;50.228;18.936;2023-06-24T03:10:24;2.88;;;2.58;;
40116;SDS011;25829;50.228;18.936;2023-06-24T03:13:25;3.40;;;3.10;;
40116;SDS011;25829;50.228;18.936;2023-06-24T03:16:42;3.33;;;3.00;;
40116;SDS011;25829;50.228;18.936;2023-06-24T03:19:50;5.90;;;3.20;;
40116;SDS011;25829;50.228;18.936;2023-06-24T03:22:51;4.13;;;3.22;;
40116;SDS011;25829;50.228;18.936;2023-06-24T03:39:32;5.43;;;3.53;;
40116;SDS011;25829;50.228;18.936;2023-06-24T03:42:33;4.78;;;3.83;;
40116;SDS011;25829;50.228;18.936;2023-06-24T03:45:46;6.47;;;3.80;;
40116;SDS011;25829;50.228;18.936;2023-06-24T03:53:03;5.13;;;3.97;;
40116;SDS011;25829;50.228;18.936;2023-06-24T03:56:08;4.55;;;4.07;;
40116;SDS011;25829;50.228;18.936;2023-06-24T03:59:09;5.47;;;3.75;;
40116;SDS011;25829;50.228;18.936;2023-06-24T04:02:10;4.30;;;3.47;;
40116;SDS011;25829;50.228;18.936;2023-06-24T04:05:16;4.78;;;4.32;;
40116;SDS011;25829;50.228;18.936;2023-06-24T04:08:16;5.13;;;4.25;;
40116;SDS011;25829;50.228;18.936;2023-06-24T04:11:18;6.25;;;3.67;;
40116;SDS011;25829;50.228;18.936;2023-06-24T04:14:18;5.43;;;3.78;;
40116;SDS011;25829;50.228;18.936;2023-06-24T04:17:19;6.35;;;4.00;;
40116;SDS011;25829;50.228;18.936;2023-06-24T04:20:20;13.38;;;7.15;;
40116;SDS011;25829;50.228;18.936;2023-06-24T04:23:32;15.82;;;10.63;;
40116;SDS011;25829;50.228;18.936;2023-06-24T04:26:34;16.75;;;9.48;;
40116;SDS011;25829;50.228;18.936;2023-06-24T04:29:36;14.95;;;9.82;;
40116;SDS011;25829;50.228;18.936;2023-06-24T04:32:37;13.85;;;9.63;;
40116;SDS011;25829;50.228;18.936;2023-06-24T04:35:38;16.33;;;11.10;;
40116;SDS011;25829;50.228;18.936;2023-06-24T04:38:39;18.85;;;12.15;;
40116;SDS011;25829;50.228;18.936;2023-06-24T04:54:11;23.00;;;16.85;;
40116;SDS011;25829;50.228;18.936;2023-06-24T04:57:31;21.35;;;16.45;;
40116;SDS011;25829;50.228;18.936;2023-06-24T05:00:33;24.00;;;16.23;;
40116;SDS011;25829;50.228;18.936;2023-06-24T05:03:33;25.83;;;17.45;;
40116;SDS011;25829;50.228;18.936;2023-06-24T05:06:34;24.77;;;17.23;;
40116;SDS011;25829;50.228;18.936;2023-06-24T05:09:35;18.60;;;14.73;;
40116;SDS011;25829;50.228;18.936;2023-06-24T05:26:15;20.63;;;13.77;;
40116;SDS011;25829;50.228;18.936;2023-06-24T05:29:16;17.10;;;13.73;;
40116;SDS011;25829;50.228;18.936;2023-06-24T05:32:18;16.35;;;12.43;;
40116;SDS011;25829;50.228;18.936;2023-06-24T05:35:20;17.20;;;12.20;;
40116;SDS011;25829;50.228;18.936;2023-06-24T05:38:21;15.27;;;11.73;;
40116;SDS011;25829;50.228;18.936;2023-06-24T05:41:24;15.27;;;11.25;;
40116;SDS011;25829;50.228;18.936;2023-06-24T05:44:25;13.35;;;11.13;;
40116;SDS011;25829;50.228;18.936;2023-06-24T05:47:26;14.50;;;10.68;;
40116;SDS011;25829;50.228;18.936;2023-06-24T05:54:55;11.32;;;9.02;;
40116;SDS011;25829;50.228;18.936;2023-06-24T05:57:56;10.90;;;8.52;;
40116;SDS011;25829;50.228;18.936;2023-06-24T06:00:57;10.80;;;7.43;;
40116;SDS011;25829;50.228;18.936;2023-06-24T06:04:00;9.00;;;7.35;;
40116;SDS011;25829;50.228;18.936;2023-06-24T06:07:01;9.70;;;7.45;;
40116;SDS011;25829;50.228;18.936;2023-06-24T06:10:02;9.00;;;7.25;;
40116;SDS011;25829;50.228;18.936;2023-06-24T06:13:03;8.05;;;6.70;;
40116;SDS011;25829;50.228;18.936;2023-06-24T06:16:04;8.68;;;5.72;;
40116;SDS011;25829;50.228;18.936;2023-06-24T06:19:05;9.73;;;5.75;;
40116;SDS011;25829;50.228;18.936;2023-06-24T06:22:06;8.43;;;6.00;;
40116;SDS011;25829;50.228;18.936;2023-06-24T06:25:06;5.50;;;4.90;;
40116;SDS011;25829;50.228;18.936;2023-06-24T06:28:08;10.30;;;5.47;;
40116;SDS011;25829;50.228;18.936;2023-06-24T06:43:56;5.85;;;5.00;;
40116;SDS011;25829;50.228;18.936;2023-06-24T06:46:57;6.40;;;5.10;;
40116;SDS011;25829;50.228;18.936;2023-06-24T06:49:58;7.00;;;5.40;;
40116;SDS011;25829;50.228;18.936;2023-06-24T06:52:59;7.18;;;5.32;;
40116;SDS011;25829;50.228;18.936;2023-06-24T06:56:00;5.88;;;5.15;;
40116;SDS011;25829;50.228;18.936;2023-06-24T06:59:00;10.15;;;5.70;;
40116;SDS011;25829;50.228;18.936;2023-06-24T07:02:04;7.82;;;5.20;;
40116;SDS011;25829;50.228;18.936;2023-06-24T07:05:05;6.13;;;4.95;;
40116;SDS011;25829;50.228;18.936;2023-06-24T07:08:06;7.60;;;5.28;;
40116;SDS011;25829;50.228;18.936;2023-06-24T07:11:08;7.78;;;5.28;;
40116;SDS011;25829;50.228;18.936;2023-06-24T07:14:09;7.43;;;4.95;;
40116;SDS011;25829;50.228;18.936;2023-06-24T07:17:09;7.35;;;5.53;;
40116;SDS011;25829;50.228;18.936;2023-06-24T07:20:10;8.95;;;5.65;;
40116;SDS011;25829;50.228;18.936;2023-06-24T07:23:11;9.25;;;5.25;;
40116;SDS011;25829;50.228;18.936;2023-06-24T07:26:12;6.13;;;5.20;;
40116;SDS011;25829;50.228;18.936;2023-06-24T07:46:43;7.45;;;5.13;;
40116;SDS011;25829;50.228;18.936;2023-06-24T07:57:28;7.22;;;5.50;;
40116;SDS011;25829;50.228;18.936;2023-06-24T08:00:30;7.07;;;4.88;;
40116;SDS011;25829;50.228;18.936;2023-06-24T08:03:30;6.85;;;5.25;;
40116;SDS011;25829;50.228;18.936;2023-06-24T08:06:31;7.60;;;5.47;;
40116;SDS011;25829;50.228;18.936;2023-06-24T08:09:32;5.68;;;4.80;;
40116;SDS011;25829;50.228;18.936;2023-06-24T08:12:33;7.72;;;5.63;;
40116;SDS011;25829;50.228;18.936;2023-06-24T08:15:36;7.03;;;5.30;;
40116;SDS011;25829;50.228;18.936;2023-06-24T08:18:37;6.28;;;5.20;;
40116;SDS011;25829;50.228;18.936;2023-06-24T08:21:38;6.80;;;6.10;;
40116;SDS011;25829;50.228;18.936;2023-06-24T08:24:39;6.63;;;5.68;;
40116;SDS011;25829;50.228;18.936;2023-06-24T08:27:46;6.40;;;5.80;;
40116;SDS011;25829;50.228;18.936;2023-06-24T08:30:54;8.00;;;5.90;;
40116;SDS011;25829;50.228;18.936;2023-06-24T08:34:04;7.22;;;6.05;;
40116;SDS011;25829;50.228;18.936;2023-06-24T08:40:57;10.40;;;5.20;;
40116;SDS011;25829;50.228;18.936;2023-06-24T08:44:00;7.95;;;5.47;;
40116;SDS011;25829;50.228;18.936;2023-06-24T08:47:28;6.72;;;5.80;;
40116;SDS011;25829;50.228;18.936;2023-06-24T08:59:44;6.40;;;5.30;;
40116;SDS011;25829;50.228;18.936;2023-06-24T09:02:45;7.78;;;4.88;;
40116;SDS011;25829;50.228;18.936;2023-06-24T09:05:48;5.75;;;5.07;;
40116;SDS011;25829;50.228;18.936;2023-06-24T09:08:53;8.05;;;5.28;;
40116;SDS011;25829;50.228;18.936;2023-06-24T09:11:57;7.18;;;4.57;;
40116;SDS011;25829;50.228;18.936;2023-06-24T09:14:59;5.57;;;4.75;;
40116;SDS011;25829;50.228;18.936;2023-06-24T09:18:00;5.07;;;4.57;;
40116;SDS011;25829;50.228;18.936;2023-06-24T09:21:02;5.68;;;5.00;;
40116;SDS011;25829;50.228;18.936;2023-06-24T09:24:03;6.53;;;4.90;;
40116;SDS011;25829;50.228;18.936;2023-06-24T09:27:05;7.13;;;5.15;;
40116;SDS011;25829;50.228;18.936;2023-06-24T09:30:27;6.05;;;4.50;;
40116;SDS011;25829;50.228;18.936;2023-06-24T09:33:26;7.70;;;4.70;;
40116;SDS011;25829;50.228;18.936;2023-06-24T09:36:28;7.97;;;4.05;;
40116;SDS011;25829;50.228;18.936;2023-06-24T09:39:34;5.50;;;4.40;;
40116;SDS011;25829;50.228;18.936;2023-06-24T09:49:43;7.07;;;5.30;;
40116;SDS011;25829;50.228;18.936;2023-06-24T09:56:54;6.65;;;5.20;;
40116;SDS011;25829;50.228;18.936;2023-06-24T09:59:58;7.43;;;5.32;;
40116;SDS011;25829;50.228;18.936;2023-06-24T10:02:59;8.43;;;5.75;;
40116;SDS011;25829;50.228;18.936;2023-06-24T10:06:01;9.15;;;6.10;;
40116;SDS011;25829;50.228;18.936;2023-06-24T10:09:02;7.15;;;6.20;;
40116;SDS011;25829;50.228;18.936;2023-06-24T10:12:03;7.05;;;5.18;;
40116;SDS011;25829;50.228;18.936;2023-06-24T10:15:05;9.27;;;6.50;;
40116;SDS011;25829;50.228;18.936;2023-06-24T10:24:53;7.78;;;6.32;;
40116;SDS011;25829;50.228;18.936;2023-06-24T10:27:53;7.78;;;6.72;;
40116;SDS011;25829;50.228;18.936;2023-06-24T10:44:21;9.10;;;5.28;;
40116;SDS011;25829;50.228;18.936;2023-06-24T10:47:22;8.18;;;6.55;;
40116;SDS011;25829;50.228;18.936;2023-06-24T10:50:23;12.00;;;6.82;;
40116;SDS011;25829;50.228;18.936;2023-06-24T10:53:27;6.53;;;5.90;;
40116;SDS011;25829;50.228;18.936;2023-06-24T10:56:30;5.47;;;4.97;;
40116;SDS011;25829;50.228;18.936;2023-06-24T10:59:34;4.93;;;4.45;;
40116;SDS011;25829;50.228;18.936;2023-06-24T11:02:39;5.95;;;4.63;;
40116;SDS011;25829;50.228;18.936;2023-06-24T11:05:43;5.45;;;4.80;;
40116;SDS011;25829;50.228;18.936;2023-06-24T11:08:48;6.00;;;5.40;;
40116;SDS011;25829;50.228;18.936;2023-06-24T11:18:37;7.10;;;5.55;;
40116;SDS011;25829;50.228;18.936;2023-06-24T11:22:28;6.93;;;5.50;;
40116;SDS011;25829;50.228;18.936;2023-06-24T11:25:29;7.28;;;4.90;;
40116;SDS011;25829;50.228;18.936;2023-06-24T11:28:39;5.75;;;5.10;;
40116;SDS011;25829;50.228;18.936;2023-06-24T11:31:44;6.53;;;5.43;;
40116;SDS011;25829;50.228;18.936;2023-06-24T11:34:46;7.20;;;5.28;;
40116;SDS011;25829;50.228;18.936;2023-06-24T11:41:15;7.60;;;5.60;;
40116;SDS011;25829;50.228;18.936;2023-06-24T11:44:20;6.97;;;5.43;;
40116;SDS011;25829;50.228;18.936;2023-06-24T11:47:22;9.07;;;5.38;;
40116;SDS011;25829;50.228;18.936;2023-06-24T11:57:14;6.22;;;4.88;;
40116;SDS011;25829;50.228;18.936;2023-06-24T12:00:14;5.30;;;4.80;;
40116;SDS011;25829;50.228;18.936;2023-06-24T12:03:15;6.03;;;4.35;;
40116;SDS011;25829;50.228;18.936;2023-06-24T12:06:29;4.97;;;4.32;;
40116;SDS011;25829;50.228;18.936;2023-06-24T12:09:40;4.95;;;4.45;;
40116;SDS011;25829;50.228;18.936;2023-06-24T12:12:42;6.28;;;4.40;;
40116;SDS011;25829;50.228;18.936;2023-06-24T12:15:43;6.60;;;5.28;;
40116;SDS011;25829;50.228;18.936;2023-06-24T12:18:44;6.63;;;4.55;;
40116;SDS011;25829;50.228;18.936;2023-06-24T12:21:44;6.95;;;5.18;;
40116;SDS011;25829;50.228;18.936;2023-06-24T12:24:45;5.85;;;4.38;;
40116;SDS011;25829;50.228;18.936;2023-06-24T12:27:46;7.55;;;4.97;;
40116;SDS011;25829;50.228;18.936;2023-06-24T13:16:08;8.60;;;4.13;;
40116;SDS011;25829;50.228;18.936;2023-06-24T13:19:09;6.18;;;4.30;;
40116;SDS011;25829;50.228;18.936;2023-06-24T13:22:10;6.10;;;4.38;;
40116;SDS011;25829;50.228;18.936;2023-06-24T13:25:11;6.57;;;4.35;;
40116;SDS011;25829;50.228;18.936;2023-06-24T13:28:11;6.78;;;3.80;;
40116;SDS011;25829;50.228;18.936;2023-06-24T13:31:12;4.35;;;3.92;;
40116;SDS011;25829;50.228;18.936;2023-06-24T13:34:13;7.80;;;4.00;;
40116;SDS011;25829;50.228;18.936;2023-06-24T13:37:14;8.32;;;4.38;;
40116;SDS011;25829;50.228;18.936;2023-06-24T13:40:21;7.47;;;4.60;;
40116;SDS011;25829;50.228;18.936;2023-06-24T13:43:22;5.45;;;3.95;;
40116;SDS011;25829;50.228;18.936;2023-06-24T14:03:01;3.85;;;3.45;;
40116;SDS011;25829;50.228;18.936;2023-06-24T14:06:02;5.65;;;3.38;;
40116;SDS011;25829;50.228;18.936;2023-06-24T14:09:03;4.22;;;3.47;;
40116;SDS011;25829;50.228;18.936;2023-06-24T14:12:04;6.57;;;3.53;;
40116;SDS011;25829;50.228;18.936;2023-06-24T14:15:06;3.05;;;2.75;;
40116;SDS011;25829;50.228;18.936;2023-06-24T14:18:07;4.78;;;3.03;;
40116;SDS011;25829;50.228;18.936;2023-06-24T14:21:13;6.38;;;3.17;;
40116;SDS011;25829;50.228;18.936;2023-06-24T14:24:14;4.00;;;3.22;;
40116;SDS011;25829;50.228;18.936;2023-06-24T14:27:15;4.60;;;3.53;;
40116;SDS011;25829;50.228;18.936;2023-06-24T14:30:15;4.22;;;3.10;;
40116;SDS011;25829;50.228;18.936;2023-06-24T14:33:22;8.60;;;3.42;;
40116;SDS011;25829;50.228;18.936;2023-06-24T14:36:26;4.78;;;3.28;;
40116;SDS011;25829;50.228;18.936;2023-06-24T14:39:27;6.68;;;3.20;;
40116;SDS011;25829;50.228;18.936;2023-06-24T14:42:28;5.05;;;3.75;;
40116;SDS011;25829;50.228;18.936;2023-06-24T14:45:29;4.28;;;2.97;;
40116;SDS011;25829;50.228;18.936;2023-06-24T14:48:30;4.38;;;3.15;;
40116;SDS011;25829;50.228;18.936;2023-06-24T14:51:30;5.47;;;3.30;;
40116;SDS011;25829;50.228;18.936;2023-06-24T14:54:31;5.18;;;3.67;;
40116;SDS011;25829;50.228;18.936;2023-06-24T14:57:32;3.78;;;3.28;;
40116;SDS011;25829;50.228;18.936;2023-06-24T15:00:33;7.45;;;3.75;;
40116;SDS011;25829;50.228;18.936;2023-06-24T15:18:19;5.85;;;4.22;;
40116;SDS011;25829;50.228;18.936;2023-06-24T15:21:20;5.72;;;3.97;;
40116;SDS011;25829;50.228;18.936;2023-06-24T15:24:21;6.15;;;4.60;;
40116;SDS011;25829;50.228;18.936;2023-06-24T15:27:22;5.22;;;4.47;;
40116;SDS011;25829;50.228;18.936;2023-06-24T15:30:22;4.53;;;4.00;;
40116;SDS011;25829;50.228;18.936;2023-06-24T15:33:24;4.70;;;4.20;;
40116;SDS011;25829;50.228;18.936;2023-06-24T15:36:25;11.55;;;4.78;;
40116;SDS011;25829;50.228;18.936;2023-06-24T15:39:27;9.02;;;4.80;;
40116;SDS011;25829;50.228;18.936;2023-06-24T15:42:28;5.78;;;4.97;;
40116;SDS011;25829;50.228;18.936;2023-06-24T15:45:30;6.28;;;4.45;;
40116;SDS011;25829;50.228;18.936;2023-06-24T15:48:31;8.10;;;5.50;;
40116;SDS011;25829;50.228;18.936;2023-06-24T15:51:32;7.90;;;4.22;;
40116;SDS011;25829;50.228;18.936;2023-06-24T15:54:32;8.65;;;4.78;;
40116;SDS011;25829;50.228;18.936;2023-06-24T15:57:37;9.32;;;4.97;;
40116;SDS011;25829;50.228;18.936;2023-06-24T16:00:37;6.93;;;4.93;;
40116;SDS011;25829;50.228;18.936;2023-06-24T16:03:47;5.25;;;4.53;;
40116;SDS011;25829;50.228;18.936;2023-06-24T16:10:11;6.10;;;4.70;;
40116;SDS011;25829;50.228;18.936;2023-06-24T16:21:12;6.68;;;4.47;;
40116;SDS011;25829;50.228;18.936;2023-06-24T16:24:14;5.63;;;4.45;;
40116;SDS011;25829;50.228;18.936;2023-06-24T16:27:14;6.57;;;4.75;;
40116;SDS011;25829;50.228;18.936;2023-06-24T16:30:15;5.72;;;4.93;;
40116;SDS011;25829;50.228;18.936;2023-06-24T16:33:16;7.47;;;5.25;;
40116;SDS011;25829;50.228;18.936;2023-06-24T16:36:17;5.75;;;4.38;;
40116;SDS011;25829;50.228;18.936;2023-06-24T16:39:19;8.43;;;5.13;;
40116;SDS011;25829;50.228;18.936;2023-06-24T16:42:20;6.35;;;4.93;;
40116;SDS011;25829;50.228;18.936;2023-06-24T16:52:53;5.03;;;4.53;;
40116;SDS011;25829;50.228;18.936;2023-06-24T16:55:54;9.40;;;7.03;;
40116;SDS011;25829;50.228;18.936;2023-06-24T16:58:55;8.57;;;6.57;;
40116;SDS011;25829;50.228;18.936;2023-06-24T17:01:56;8.85;;;6.53;;
40116;SDS011;25829;50.228;18.936;2023-06-24T17:04:56;9.02;;;7.28;;
40116;SDS011;25829;50.228;18.936;2023-06-24T17:07:58;7.85;;;7.00;;
40116;SDS011;25829;50.228;18.936;2023-06-24T17:10:59;8.32;;;6.22;;
40116;SDS011;25829;50.228;18.936;2023-06-24T17:14:08;8.50;;;5.55;;
40116;SDS011;25829;50.228;18.936;2023-06-24T17:17:14;9.43;;;5.28;;
40116;SDS011;25829;50.228;18.936;2023-06-24T17:20:15;6.32;;;5.32;;
40116;SDS011;25829;50.228;18.936;2023-06-24T17:28:27;8.02;;;5.57;;
40116;SDS011;25829;50.228;18.936;2023-06-24T17:31:28;7.53;;;5.13;;
40116;SDS011;25829;50.228;18.936;2023-06-24T17:34:38;6.22;;;5.50;;
40116;SDS011;25829;50.228;18.936;2023-06-24T17:37:54;5.38;;;4.80;;
40116;SDS011;25829;50.228;18.936;2023-06-24T17:44:46;5.80;;;5.13;;
40116;SDS011;25829;50.228;18.936;2023-06-24T17:47:46;6.10;;;4.95;;
40116;SDS011;25829;50.228;18.936;2023-06-24T17:50:47;6.15;;;4.85;;
40116;SDS011;25829;50.228;18.936;2023-06-24T17:53:48;8.57;;;5.50;;
40116;SDS011;25829;50.228;18.936;2023-06-24T17:56:57;5.90;;;4.40;;
40116;SDS011;25829;50.228;18.936;2023-06-24T18:00:00;7.13;;;4.68;;
40116;SDS011;25829;50.228;18.936;2023-06-24T18:03:01;5.30;;;4.75;;
40116;SDS011;25829;50.228;18.936;2023-06-24T18:06:03;6.53;;;4.60;;
40116;SDS011;25829;50.228;18.936;2023-06-24T18:09:03;6.63;;;5.28;;
40116;SDS011;25829;50.228;18.936;2023-06-24T18:12:04;6.72;;;4.72;;
40116;SDS011;25829;50.228;18.936;2023-06-24T18:15:05;6.47;;;5.03;;
40116;SDS011;25829;50.228;18.936;2023-06-24T18:18:08;6.20;;;4.95;;
40116;SDS011;25829;50.228;18.936;2023-06-24T18:21:15;6.28;;;4.55;;
40116;SDS011;25829;50.228;18.936;2023-06-24T18:24:17;5.55;;;4.72;;
40116;SDS011;25829;50.228;18.936;2023-06-24T18:27:19;5.47;;;4.97;;
40116;SDS011;25829;50.228;18.936;2023-06-24T18:30:20;6.72;;;4.82;;
40116;SDS011;25829;50.228;18.936;2023-06-24T18:33:20;9.60;;;4.82;;
40116;SDS011;25829;50.228;18.936;2023-06-24T18:36:21;5.53;;;4.68;;
40116;SDS011;25829;50.228;18.936;2023-06-24T18:39:22;5.20;;;4.70;;
40116;SDS011;25829;50.228;18.936;2023-06-24T18:50:39;5.57;;;4.57;;
40116;SDS011;25829;50.228;18.936;2023-06-24T18:53:40;6.60;;;4.63;;
40116;SDS011;25829;50.228;18.936;2023-06-24T18:57:10;6.50;;;4.72;;
40116;SDS011;25829;50.228;18.936;2023-06-24T19:00:11;5.80;;;4.93;;
40116;SDS011;25829;50.228;18.936;2023-06-24T19:03:13;5.88;;;5.22;;
40116;SDS011;25829;50.228;18.936;2023-06-24T19:06:18;8.20;;;5.25;;
40116;SDS011;25829;50.228;18.936;2023-06-24T19:09:28;6.40;;;4.63;;
40116;SDS011;25829;50.228;18.936;2023-06-24T19:12:29;7.43;;;5.35;;
40116;SDS011;25829;50.228;18.936;2023-06-24T19:19:01;5.47;;;4.57;;
40116;SDS011;25829;50.228;18.936;2023-06-24T19:22:03;8.20;;;5.75;;
40116;SDS011;25829;50.228;18.936;2023-06-24T19:25:05;8.15;;;5.38;;
40116;SDS011;25829;50.228;18.936;2023-06-24T19:28:06;8.13;;;4.72;;
40116;SDS011;25829;50.228;18.936;2023-06-24T19:31:06;7.05;;;5.72;;
40116;SDS011;25829;50.228;18.936;2023-06-24T19:34:07;7.95;;;5.32;;
40116;SDS011;25829;50.228;18.936;2023-06-24T19:37:09;8.55;;;5.28;;
40116;SDS011;25829;50.228;18.936;2023-06-24T19:40:09;7.22;;;5.10;;
40116;SDS011;25829;50.228;18.936;2023-06-24T19:43:11;8.60;;;5.63;;
40116;SDS011;25829;50.228;18.936;2023-06-24T19:46:11;7.47;;;5.72;;
40116;SDS011;25829;50.228;18.936;2023-06-24T19:49:12;6.43;;;5.45;;
40116;SDS011;25829;50.228;18.936;2023-06-24T19:52:13;6.75;;;5.47;;
40116;SDS011;25829;50.228;18.936;2023-06-24T19:55:17;8.15;;;5.55;;
40116;SDS011;25829;50.228;18.936;2023-06-24T19:58:17;7.82;;;5.22;;
40116;SDS011;25829;50.228;18.936;2023-06-24T20:01:18;6.82;;;5.32;;
40116;SDS011;25829;50.228;18.936;2023-06-24T20:04:19;8.20;;;5.38;;
40116;SDS011;25829;50.228;18.936;2023-06-24T20:07:20;6.63;;;5.40;;
40116;SDS011;25829;50.228;18.936;2023-06-24T20:10:20;6.22;;;5.30;;
40116;SDS011;25829;50.228;18.936;2023-06-24T20:13:21;7.63;;;5.63;;
40116;SDS011;25829;50.228;18.936;2023-06-24T20:16:22;7.15;;;5.60;;
40116;SDS011;25829;50.228;18.936;2023-06-24T20:19:27;10.32;;;5.75;;
40116;SDS011;25829;50.228;18.936;2023-06-24T20:22:27;7.65;;;5.20;;
40116;SDS011;25829;50.228;18.936;2023-06-24T20:25:28;6.10;;;5.13;;
40116;SDS011;25829;50.228;18.936;2023-06-24T20:28:29;9.57;;;5.47;;
40116;SDS011;25829;50.228;18.936;2023-06-24T20:31:30;5.93;;;5.32;;
40116;SDS011;25829;50.228;18.936;2023-06-24T21:07:28;7.15;;;5.43;;
40116;SDS011;25829;50.228;18.936;2023-06-24T21:10:42;7.90;;;5.32;;
40116;SDS011;25829;50.228;18.936;2023-06-24T21:13:43;6.93;;;4.90;;
40116;SDS011;25829;50.228;18.936;2023-06-24T21:16:44;9.13;;;6.00;;
40116;SDS011;25829;50.228;18.936;2023-06-24T21:19:44;9.23;;;6.07;;
40116;SDS011;25829;50.228;18.936;2023-06-24T21:26:44;8.38;;;5.97;;
40116;SDS011;25829;50.228;18.936;2023-06-24T21:29:56;7.03;;;5.20;;
40116;SDS011;25829;50.228;18.936;2023-06-24T21:32:57;6.35;;;5.25;;
40116;SDS011;25829;50.228;18.936;2023-06-24T21:52:34;6.93;;;4.50;;
40116;SDS011;25829;50.228;18.936;2023-06-24T21:55:35;5.72;;;5.05;;
40116;SDS011;25829;50.228;18.936;2023-06-24T21:58:36;7.60;;;5.10;;
40116;SDS011;25829;50.228;18.936;2023-06-24T22:01:36;7.68;;;5.10;;
40116;SDS011;25829;50.228;18.936;2023-06-24T22:04:37;6.93;;;5.38;;
40116;SDS011;25829;50.228;18.936;2023-06-24T22:07:38;7.25;;;5.32;;
40116;SDS011;25829;50.228;18.936;2023-06-24T22:10:39;5.88;;;4.82;;
40116;SDS011;25829;50.228;18.936;2023-06-24T22:13:39;5.70;;;5.10;;
40116;SDS011;25829;50.228;18.936;2023-06-24T22:16:40;6.85;;;5.07;;
40116;SDS011;25829;50.228;18.936;2023-06-24T22:19:44;6.07;;;5.47;;
40116;SDS011;25829;50.228;18.936;2023-06-24T22:22:45;6.60;;;5.03;;
40116;SDS011;25829;50.228;18.936;2023-06-24T22:25:45;6.40;;;5.25;;
40116;SDS011;25829;50.228;18.936;2023-06-24T22:28:46;5.85;;;5.13;;
40116;SDS011;25829;50.228;18.936;2023-06-24T22:31:47;6.03;;;5.22;;
40116;SDS011;25829;50.228;18.936;2023-06-24T22:34:48;6.10;;;5.22;;
40116;SDS011;25829;50.228;18.936;2023-06-24T22:37:49;7.00;;;4.60;;
40116;SDS011;25829;50.228;18.936;2023-06-24T22:40:51;7.72;;;5.07;;
40116;SDS011;25829;50.228;18.936;2023-06-24T22:43:52;8.32;;;5.28;;
40116;SDS011;25829;50.228;18.936;2023-06-24T22:46:52;6.03;;;5.15;;
40116;SDS011;25829;50.228;18.936;2023-06-24T22:49:53;6.72;;;5.07;;
40116;SDS011;25829;50.228;18.936;2023-06-24T22:52:54;5.45;;;4.93;;
40116;SDS011;25829;50.228;18.936;2023-06-24T22:55:55;5.95;;;4.70;;
40116;SDS011;25829;50.228;18.936;2023-06-24T22:58:55;5.95;;;5.15;;
40116;SDS011;25829;50.228;18.936;2023-06-24T23:01:56;6.85;;;4.85;;
40116;SDS011;25829;50.228;18.936;2023-06-24T23:04:57;6.20;;;5.30;;
40116;SDS011;25829;50.228;18.936;2023-06-24T23:07:58;5.18;;;4.65;;
40116;SDS011;25829;50.228;18.936;2023-06-24T23:10:59;6.18;;;5.03;;
40116;SDS011;25829;50.228;18.936;2023-06-24T23:14:00;6.80;;;4.80;;
40116;SDS011;25829;50.228;18.936;2023-06-24T23:17:01;6.20;;;4.93;;
40116;SDS011;25829;50.228;18.936;2023-06-24T23:20:02;6.20;;;4.75;;
40116;SDS011;25829;50.228;18.936;2023-06-24T23:23:05;5.88;;;4.97;;
40116;SDS011;25829;50.228;18.936;2023-06-24T23:26:09;6.05;;;4.90;;
40116;SDS011;25829;50.228;18.936;2023-06-24T23:29:10;7.03;;;5.00;;
40116;SDS011;25829;50.228;18.936;2023-06-24T23:32:11;8.10;;;5.28;;
40116;SDS011;25829;50.228;18.936;2023-06-24T23:35:12;6.00;;;5.15;;
40116;SDS011;25829;50.228;18.936;2023-06-24T23:38:13;7.13;;;4.95;;
40116;SDS011;25829;50.228;18.936;2023-06-24T23:41:15;6.97;;;4.68;;
40116;SDS011;25829;50.228;18.936;2023-06-24T23:44:16;5.28;;;4.60;;